Time;durP1;ratioP1;P1;durP2;ratioP2;P2;SDS_P1;SDS_P2;PMS_P1;PMS_P2;Temp;Humidity;BMP_temperature;BMP_pressure;BME280_temperature;BME280_humidity;BME280_pressure;Samples;Min_cycle;Max_cycle;Signal;HPM_P1;HPM_P2
2022/05/22 00:00:22;;;;;;;71.40;7.33;;;16.40;92.80;;;;;;6103612;23;20150;-86
2022/05/22 00:02:48;;;;;;;73.40;7.87;;;16.40;92.40;;;;;;6103216;23;20391;-86
2022/05/22 00:05:17;;;;;;;74.00;9.90;;;16.40;92.90;;;;;;6103882;23;20741;-86
2022/05/22 00:07:44;;;;;;;69.87;7.83;;;16.30;92.70;;;;;;6104538;23;20367;-86
2022/05/22 00:10:09;;;;;;;69.27;8.40;;;16.30;93.00;;;;;;6102497;23;20383;-86
2022/05/22 00:12:35;;;;;;;69.20;9.23;;;16.30;93.60;;;;;;6103913;23;20419;-86
2022/05/22 00:15:01;;;;;;;70.23;11.10;;;16.30;93.60;;;;;;6102137;23;20175;-86
2022/05/22 00:17:27;;;;;;;71.10;9.40;;;16.20;94.20;;;;;;6102691;23;20155;-86
2022/05/22 00:19:52;;;;;;;72.10;11.03;;;16.30;94.60;;;;;;6104561;23;20384;-86
2022/05/22 00:22:18;;;;;;;68.73;8.30;;;16.30;94.50;;;;;;6103154;23;20246;-86
2022/05/22 00:24:44;;;;;;;68.97;9.40;;;16.30;94.60;;;;;;6103593;23;20150;-86
2022/05/22 00:27:09;;;;;;;68.57;11.23;;;16.20;94.80;;;;;;6102571;23;20150;-86
2022/05/22 00:29:39;;;;;;;69.70;9.80;;;16.20;95.70;;;;;;6102318;23;20170;-86
2022/05/22 00:32:06;;;;;;;67.77;9.90;;;16.20;96.50;;;;;;6126512;23;20223;-86
2022/05/22 00:34:32;;;;;;;72.63;10.83;;;16.10;96.60;;;;;;6104108;23;20729;-86
2022/05/22 00:36:57;;;;;;;73.10;12.83;;;16.20;96.70;;;;;;6102375;23;20379;-87
2022/05/22 00:39:23;;;;;;;69.80;9.80;;;16.10;97.10;;;;;;6104244;23;20374;-86
2022/05/22 00:41:52;;;;;;;69.77;10.40;;;16.10;97.20;;;;;;6103852;23;20167;-86
2022/05/22 00:44:19;;;;;;;74.30;12.00;;;16.10;98.00;;;;;;6106002;23;20660;-85
2022/05/22 00:46:45;;;;;;;73.20;10.00;;;16.10;97.50;;;;;;6104099;23;20417;-84
2022/05/22 00:49:29;;;;;;;85.67;11.40;;;16.10;98.00;;;;;;6102502;23;20458;-84
2022/05/22 00:52:25;;;;;;;71.77;11.17;;;16.10;97.50;;;;;;6103680;23;20419;-85
2022/05/22 00:55:01;;;;;;;72.50;10.40;;;16.00;97.90;;;;;;6091048;23;20437;-84
2022/05/22 00:57:40;;;;;;;69.80;9.60;;;16.00;97.90;;;;;;6103662;23;20401;-84
2022/05/22 01:00:15;;;;;;;68.23;9.80;;;15.90;98.20;;;;;;6104643;23;20348;-85
2022/05/22 01:05:25;;;;;;;70.07;10.50;;;15.90;98.30;;;;;;6103643;23;20423;-84
2022/05/22 01:07:51;;;;;;;68.87;10.60;;;15.90;97.30;;;;;;6104697;23;20375;-86
2022/05/22 01:10:19;;;;;;;70.20;11.17;;;15.90;97.80;;;;;;6101914;23;20149;-86
2022/05/22 01:12:46;;;;;;;71.70;11.30;;;15.80;98.10;;;;;;6102366;23;20436;-86
2022/05/22 01:15:16;;;;;;;69.90;10.80;;;15.70;99.50;;;;;;6104285;23;20376;-86
2022/05/22 01:17:48;;;;;;;68.30;10.03;;;15.70;99.50;;;;;;6102303;23;20432;-86
2022/05/22 01:20:15;;;;;;;69.53;9.60;;;15.70;99.40;;;;;;6103036;23;20381;-86
2022/05/22 01:22:41;;;;;;;72.00;9.97;;;15.70;99.00;;;;;;6104304;23;20708;-86
2022/05/22 01:25:08;;;;;;;68.67;10.90;;;15.70;99.40;;;;;;6103408;23;20778;-86
2022/05/22 01:27:34;;;;;;;69.07;10.63;;;15.70;98.70;;;;;;6104365;23;20382;-86
2022/05/22 01:30:22;;;;;;;71.13;10.40;;;15.70;98.40;;;;;;6102892;23;20375;-86
2022/05/22 01:32:49;;;;;;;69.80;9.80;;;15.60;98.10;;;;;;6103413;23;20390;-86
2022/05/22 01:35:20;;;;;;;69.90;10.70;;;15.60;98.90;;;;;;6103600;23;20405;-86
2022/05/22 01:37:49;;;;;;;67.90;11.10;;;15.60;98.50;;;;;;6103722;23;20824;-85
2022/05/22 01:40:17;;;;;;;68.63;10.80;;;15.60;98.80;;;;;;6108441;23;20440;-86
2022/05/22 01:42:43;;;;;;;68.53;10.80;;;15.50;99.50;;;;;;6103378;23;20460;-86
2022/05/22 01:45:15;;;;;;;70.20;9.73;;;15.50;99.50;;;;;;6103112;23;20417;-85
2022/05/22 01:47:41;;;;;;;68.10;10.00;;;15.40;99.50;;;;;;6104137;23;20347;-86
2022/05/22 01:50:08;;;;;;;74.50;11.87;;;15.40;99.90;;;;;;6102947;23;20385;-86
2022/05/22 01:52:34;;;;;;;70.37;10.60;;;15.40;99.30;;;;;;6101599;23;20405;-86
2022/05/22 01:55:00;;;;;;;68.77;10.83;;;15.40;99.40;;;;;;6101079;23;20382;-86
2022/05/22 01:57:25;;;;;;;68.00;9.70;;;15.40;99.50;;;;;;6103192;23;20378;-86
2022/05/22 01:59:51;;;;;;;68.90;10.17;;;15.30;99.90;;;;;;6102070;23;20155;-86
2022/05/22 02:02:17;;;;;;;74.30;12.37;;;15.30;99.20;;;;;;6103678;23;20162;-86
2022/05/22 02:04:42;;;;;;;68.27;10.70;;;15.30;98.80;;;;;;6103099;23;20218;-86
2022/05/22 02:09:52;;;;;;;67.27;8.47;;;15.20;99.90;;;;;;6103459;23;20224;-86
2022/05/22 02:12:18;;;;;;;72.30;9.50;;;15.20;99.90;;;;;;6103906;23;20390;-86
2022/05/22 02:14:44;;;;;;;72.97;10.23;;;15.20;99.90;;;;;;6103434;23;20222;-86
2022/05/22 02:17:09;;;;;;;67.43;9.37;;;15.10;99.90;;;;;;6106107;23;20150;-86
2022/05/22 02:19:35;;;;;;;67.23;8.07;;;15.10;99.80;;;;;;6103799;23;20148;-86
2022/05/22 02:22:00;;;;;;;68.17;8.80;;;15.20;99.90;;;;;;6103739;23;20179;-86
2022/05/22 02:24:26;;;;;;;67.90;10.13;;;15.10;99.60;;;;;;6103437;23;20500;-86
2022/05/22 02:26:52;;;;;;;68.20;9.50;;;15.10;99.70;;;;;;6104036;23;20173;-86
2022/05/22 02:29:18;;;;;;;68.00;9.10;;;15.00;99.90;;;;;;6105133;23;20223;-86
2022/05/22 02:31:43;;;;;;;67.60;9.13;;;15.00;99.90;;;;;;6103038;23;20193;-86
2022/05/22 02:34:09;;;;;;;68.77;8.17;;;15.00;99.90;;;;;;6103684;23;20171;-86
2022/05/22 02:36:34;;;;;;;69.40;7.40;;;15.00;99.90;;;;;;6104856;23;20173;-86
2022/05/22 02:39:00;;;;;;;67.97;7.00;;;15.00;99.90;;;;;;6104760;23;20169;-86
2022/05/22 02:41:26;;;;;;;67.60;7.10;;;14.90;99.90;;;;;;6103269;23;20523;-86
2022/05/22 02:43:52;;;;;;;67.97;7.13;;;14.90;99.90;;;;;;6104579;23;20151;-86
2022/05/22 02:46:19;;;;;;;68.23;7.80;;;14.90;99.90;;;;;;6127980;23;20181;-86
2022/05/22 02:48:45;;;;;;;72.33;7.53;;;14.90;99.90;;;;;;6128018;23;20462;-86
2022/05/22 02:51:16;;;;;;;65.90;6.90;;;14.80;99.90;;;;;;6102968;23;20412;-86
2022/05/22 02:53:41;;;;;;;67.10;6.47;;;14.80;99.90;;;;;;6106005;23;20134;-86
2022/05/22 02:56:10;;;;;;;66.80;6.60;;;14.80;99.90;;;;;;6103684;23;20372;-86
2022/05/22 02:58:36;;;;;;;69.37;7.97;;;14.80;99.90;;;;;;6127919;23;20157;-86
2022/05/22 03:01:02;;;;;;;67.40;6.23;;;14.70;99.90;;;;;;6104892;23;20401;-86
2022/05/22 03:03:27;;;;;;;68.83;6.80;;;14.80;99.90;;;;;;6104412;23;20149;-86
2022/05/22 03:08:37;;;;;;;67.57;6.43;;;14.70;99.90;;;;;;6105407;23;20185;-86
2022/05/22 03:11:06;;;;;;;68.30;6.93;;;14.70;99.90;;;;;;6105355;23;20868;-86
2022/05/22 03:13:32;;;;;;;70.77;6.80;;;14.60;99.90;;;;;;6103683;23;20155;-86
2022/05/22 03:15:58;;;;;;;68.00;6.20;;;14.60;99.90;;;;;;6104886;23;20404;-86
2022/05/22 03:18:24;;;;;;;67.23;6.03;;;14.60;99.90;;;;;;6105420;23;20373;-86
2022/05/22 03:20:49;;;;;;;68.77;6.40;;;14.60;99.90;;;;;;6108555;23;20199;-83
2022/05/22 03:23:15;;;;;;;69.27;6.40;;;14.60;99.90;;;;;;6124238;23;20143;-83
2022/05/22 03:25:42;;;;;;;70.97;7.00;;;14.60;99.90;;;;;;6124104;23;20244;-83
2022/05/22 03:28:07;;;;;;;71.10;6.23;;;14.60;99.90;;;;;;6124489;23;20235;-83
2022/05/22 03:30:33;;;;;;;67.37;6.40;;;14.50;99.90;;;;;;6124195;23;20373;-83
2022/05/22 03:32:59;;;;;;;68.10;6.23;;;14.50;99.90;;;;;;6124455;23;20147;-83
2022/05/22 03:35:24;;;;;;;68.87;6.97;;;14.50;99.90;;;;;;6125211;23;20176;-83
2022/05/22 03:37:50;;;;;;;66.93;6.30;;;14.50;99.90;;;;;;6123975;23;20222;-83
2022/05/22 03:40:16;;;;;;;66.37;6.40;;;14.50;99.90;;;;;;6124094;23;20148;-83
2022/05/22 03:42:42;;;;;;;67.27;6.27;;;14.50;99.90;;;;;;6124255;23;20201;-83
2022/05/22 03:45:08;;;;;;;67.30;5.83;;;14.40;99.90;;;;;;6126867;23;20144;-83
2022/05/22 03:47:34;;;;;;;69.03;5.63;;;14.40;99.90;;;;;;6132798;23;20421;-83
2022/05/22 03:50:04;;;;;;;68.50;6.47;;;14.40;99.90;;;;;;6132036;23;20784;-83
2022/05/22 03:52:36;;;;;;;67.00;6.00;;;14.40;99.90;;;;;;6131604;23;20174;-83
2022/05/22 03:55:04;;;;;;;73.97;5.97;;;14.40;99.90;;;;;;6132470;23;20367;-84
2022/05/22 03:57:30;;;;;;;68.33;5.93;;;14.40;99.90;;;;;;6131529;23;20374;-83
2022/05/22 03:59:55;;;;;;;66.70;5.73;;;14.40;99.90;;;;;;6131706;23;20741;-83
2022/05/22 04:02:21;;;;;;;67.40;6.37;;;14.30;99.90;;;;;;6131970;23;20623;-83
2022/05/22 04:04:47;;;;;;;68.37;6.83;;;14.30;99.90;;;;;;6131673;23;20144;-83
2022/05/22 04:07:15;;;;;;;66.03;6.27;;;14.30;99.90;;;;;;6106268;23;20232;-83
2022/05/22 04:09:40;;;;;;;67.07;6.20;;;14.30;99.90;;;;;;6106053;23;20171;-84
2022/05/22 04:12:11;;;;;;;67.37;6.13;;;14.30;99.90;;;;;;6107071;23;20392;-84
2022/05/22 04:14:37;;;;;;;68.87;8.73;;;14.30;99.90;;;;;;6132074;23;20837;-83
2022/05/22 04:17:03;;;;;;;69.53;6.80;;;14.30;99.90;;;;;;6105750;23;20387;-84
2022/05/22 04:19:29;;;;;;;66.03;6.50;;;14.30;99.90;;;;;;6132029;23;20378;-84
2022/05/22 04:21:55;;;;;;;68.27;7.27;;;14.40;99.90;;;;;;6131201;23;20411;-83
2022/05/22 04:27:08;;;;;;;65.77;5.57;;;14.40;99.90;;;;;;6131769;23;20220;-84
2022/05/22 04:29:35;;;;;;;68.90;7.57;;;14.40;99.90;;;;;;6131483;23;20380;-84
2022/05/22 04:32:01;;;;;;;67.70;7.97;;;14.40;99.90;;;;;;6131840;23;20158;-84
2022/05/22 04:34:27;;;;;;;71.20;9.27;;;14.40;99.90;;;;;;6131633;23;20366;-84
2022/05/22 04:36:53;;;;;;;69.90;9.70;;;14.40;99.90;;;;;;6106423;23;20696;-84
2022/05/22 04:39:19;;;;;;;70.87;10.67;;;14.40;99.90;;;;;;6131204;23;20152;-83
2022/05/22 04:41:44;;;;;;;68.37;13.70;;;14.40;99.90;;;;;;6132136;23;20163;-84
2022/05/22 04:44:10;;;;;;;69.67;16.37;;;14.50;99.90;;;;;;6131433;23;20203;-83
2022/05/22 04:46:36;;;;;;;70.50;17.10;;;14.60;99.90;;;;;;6130964;23;20171;-83
2022/05/22 04:49:01;;;;;;;71.30;17.50;;;14.70;99.90;;;;;;6131341;23;20152;-83
2022/05/22 04:51:27;;;;;;;73.77;24.67;;;14.80;99.90;;;;;;6132114;23;20187;-84
2022/05/22 04:53:53;;;;;;;72.13;23.90;;;15.00;99.90;;;;;;6131495;23;20140;-83
2022/05/22 04:56:19;;;;;;;73.90;23.40;;;15.10;99.90;;;;;;6131961;23;20156;-84
2022/05/22 04:58:46;;;;;;;73.47;19.63;;;15.20;99.90;;;;;;6131922;23;20143;-83
2022/05/22 05:01:13;;;;;;;71.00;18.23;;;15.20;99.90;;;;;;6131945;23;20403;-83
2022/05/22 05:03:39;;;;;;;75.27;14.17;;;15.20;99.90;;;;;;6131271;23;20375;-83
2022/05/22 05:06:05;;;;;;;73.60;15.87;;;15.20;99.90;;;;;;6131021;23;20416;-83
2022/05/22 05:08:31;;;;;;;71.37;18.93;;;15.20;99.90;;;;;;6127250;23;20371;-83
2022/05/22 05:11:01;;;;;;;70.40;18.83;;;15.20;99.90;;;;;;6124298;23;20747;-83
2022/05/22 05:13:27;;;;;;;70.47;18.13;;;15.20;99.90;;;;;;6098782;23;20385;-83
2022/05/22 05:16:03;;;;;;;71.47;16.27;;;15.20;99.90;;;;;;6124607;23;20371;-83
2022/05/22 05:18:29;;;;;;;70.27;17.43;;;15.20;99.90;;;;;;6124224;23;20737;-83
2022/05/22 05:20:59;;;;;;;70.97;18.57;;;15.20;99.90;;;;;;6124099;23;20406;-83
2022/05/22 05:23:24;;;;;;;73.10;17.57;;;15.30;99.90;;;;;;6124027;23;20861;-83
2022/05/22 05:25:50;;;;;;;71.07;17.60;;;15.10;99.90;;;;;;6124161;23;20412;-83
2022/05/22 05:28:16;;;;;;;73.37;17.17;;;15.20;99.90;;;;;;6123986;23;20141;-83
2022/05/22 05:30:42;;;;;;;75.47;22.90;;;15.10;99.90;;;;;;6124037;23;20246;-83
2022/05/22 05:33:07;;;;;;;73.37;21.57;;;14.90;99.90;;;;;;6123707;23;20140;-83
2022/05/22 05:35:33;;;;;;;72.40;21.00;;;14.90;99.90;;;;;;6124397;23;20148;-83
2022/05/22 05:37:59;;;;;;;71.00;16.97;;;15.00;99.90;;;;;;6123824;23;20231;-83
2022/05/22 05:40:25;;;;;;;72.70;19.73;;;15.00;99.90;;;;;;6123808;23;20818;-83
2022/05/22 05:42:50;;;;;;;71.37;19.53;;;15.00;99.90;;;;;;6123387;23;20167;-83
2022/05/22 05:45:17;;;;;;;74.03;19.37;;;15.00;99.90;;;;;;6123630;23;20636;-83
2022/05/22 05:47:47;;;;;;;73.90;18.57;;;14.90;99.90;;;;;;6123673;23;20222;-83
2022/05/22 05:50:15;;;;;;;70.67;17.70;;;14.90;99.90;;;;;;6124379;23;20380;-83
2022/05/22 05:52:41;;;;;;;71.70;19.47;;;15.00;99.90;;;;;;6097605;23;20435;-83
2022/05/22 05:55:07;;;;;;;69.87;13.97;;;15.10;99.90;;;;;;6124033;23;20380;-83
2022/05/22 05:57:33;;;;;;;69.60;14.13;;;15.20;99.90;;;;;;6123569;23;20400;-83
2022/05/22 05:59:58;;;;;;;72.67;16.57;;;15.20;99.90;;;;;;6123615;23;20366;-83
2022/05/22 06:02:24;;;;;;;77.30;18.23;;;15.20;99.90;;;;;;6123490;23;20165;-83
2022/05/22 06:04:50;;;;;;;74.67;18.30;;;15.20;99.90;;;;;;6123542;23;20141;-83
2022/05/22 06:07:16;;;;;;;72.30;18.97;;;15.20;99.90;;;;;;6097422;23;20900;-83
2022/05/22 06:09:42;;;;;;;72.07;18.93;;;15.20;99.90;;;;;;6123581;23;20144;-83
2022/05/22 06:12:08;;;;;;;73.07;19.37;;;15.30;99.90;;;;;;6124084;23;20391;-83
2022/05/22 06:14:34;;;;;;;74.97;23.57;;;15.20;99.90;;;;;;6123263;23;20831;-83
2022/05/22 06:17:00;;;;;;;71.37;21.80;;;15.10;99.90;;;;;;6123707;23;20368;-83
2022/05/22 06:22:14;;;;;;;77.10;28.27;;;15.20;99.90;;;;;;6123271;23;20428;-83
2022/05/22 06:24:39;;;;;;;76.23;30.47;;;15.20;99.90;;;;;;6123270;23;20380;-83
2022/05/22 06:27:05;;;;;;;78.50;32.97;;;15.30;99.90;;;;;;6123572;23;20407;-83
2022/05/22 06:29:31;;;;;;;74.17;29.77;;;15.30;99.90;;;;;;6123201;23;20539;-83
2022/05/22 06:31:57;;;;;;;71.93;23.47;;;15.30;99.90;;;;;;6128371;23;20172;-84
2022/05/22 06:34:22;;;;;;;72.90;15.50;;;15.40;99.90;;;;;;6130025;23;20140;-84
2022/05/22 06:36:50;;;;;;;73.17;19.47;;;15.60;99.90;;;;;;6128927;23;20370;-85
2022/05/22 06:42:00;;;;;;;68.03;10.30;;;15.60;99.90;;;;;;6129582;23;20394;-84
2022/05/22 06:44:28;;;;;;;69.27;15.73;;;15.70;99.90;;;;;;6129675;23;20369;-84
2022/05/22 06:46:54;;;;;;;68.43;10.40;;;15.60;99.90;;;;;;6129605;23;20251;-84
2022/05/22 06:49:19;;;;;;;71.17;12.67;;;15.70;99.90;;;;;;6129874;23;20431;-84
2022/05/22 06:51:46;;;;;;;66.57;8.67;;;15.80;99.90;;;;;;6129148;23;20189;-84
2022/05/22 06:54:12;;;;;;;73.67;10.00;;;15.90;99.90;;;;;;6129843;23;20170;-84
2022/05/22 06:56:38;;;;;;;68.47;10.40;;;15.90;99.90;;;;;;6130811;23;20377;-84
2022/05/22 06:59:03;;;;;;;73.47;9.67;;;16.00;99.90;;;;;;6129970;23;20225;-84
2022/05/22 07:01:29;;;;;;;73.83;9.47;;;16.00;99.90;;;;;;6104961;23;20173;-84
2022/05/22 07:03:55;;;;;;;70.00;9.93;;;16.10;99.90;;;;;;6129619;23;20153;-84
2022/05/22 07:06:20;;;;;;;71.07;8.90;;;16.10;99.90;;;;;;6129430;23;20176;-84
2022/05/22 07:08:46;;;;;;;70.60;10.70;;;16.10;99.90;;;;;;6106952;23;20557;-84
2022/05/22 07:13:56;;;;;;;73.77;11.43;;;16.20;99.90;;;;;;6131906;23;20167;-84
2022/05/22 07:16:21;;;;;;;69.57;10.30;;;16.10;99.90;;;;;;6130920;23;20468;-85
2022/05/22 07:18:47;;;;;;;71.37;14.40;;;16.20;99.90;;;;;;6131081;23;20177;-85
2022/05/22 07:21:13;;;;;;;72.80;11.57;;;16.20;99.90;;;;;;6131127;23;20185;-85
2022/05/22 07:23:38;;;;;;;69.90;9.07;;;16.20;99.90;;;;;;6131726;23;20169;-84
2022/05/22 07:26:05;;;;;;;73.00;11.20;;;16.30;99.90;;;;;;6132520;23;20633;-85
2022/05/22 07:28:31;;;;;;;71.23;11.20;;;16.40;99.90;;;;;;6131597;23;20535;-85
2022/05/22 07:30:57;;;;;;;70.47;9.27;;;16.50;99.90;;;;;;6132323;23;20393;-85
2022/05/22 07:33:23;;;;;;;74.00;10.30;;;16.60;99.90;;;;;;6131945;23;20414;-85
2022/05/22 07:35:59;;;;;;;69.90;10.97;;;16.60;99.90;;;;;;6132087;23;20394;-84
2022/05/22 07:38:27;;;;;;;70.37;12.20;;;16.60;99.90;;;;;;6132889;23;20149;-85
2022/05/22 07:40:53;;;;;;;70.60;10.17;;;16.60;99.90;;;;;;6132601;23;20387;-84
2022/05/22 07:43:19;;;;;;;72.00;10.70;;;16.70;99.90;;;;;;6131935;23;20367;-85
2022/05/22 07:45:45;;;;;;;70.27;10.47;;;16.70;99.90;;;;;;6132250;23;20916;-84
2022/05/22 07:48:10;;;;;;;70.20;10.00;;;16.80;99.90;;;;;;6105484;23;20209;-84
2022/05/22 07:50:36;;;;;;;75.67;13.70;;;16.90;99.90;;;;;;6105612;23;20157;-85
2022/05/22 07:53:02;;;;;;;73.07;13.50;;;17.00;99.90;;;;;;6131512;23;20143;-84
2022/05/22 07:55:27;;;;;;;68.90;7.07;;;17.00;99.90;;;;;;6130663;23;20150;-84
2022/05/22 07:57:53;;;;;;;74.80;13.20;;;17.10;99.90;;;;;;6103542;23;20851;-84
2022/05/22 08:00:21;;;;;;;73.17;10.40;;;17.00;99.90;;;;;;6127594;23;20143;-83
2022/05/22 08:02:47;;;;;;;71.00;11.77;;;17.20;99.90;;;;;;6124483;23;20166;-83
2022/05/22 08:05:15;;;;;;;69.07;11.13;;;17.20;99.90;;;;;;6123870;23;20371;-83
2022/05/22 08:07:40;;;;;;;69.70;6.60;;;17.30;99.90;;;;;;6124270;23;20370;-84
2022/05/22 08:10:08;;;;;;;71.57;7.07;;;17.40;97.70;;;;;;6123691;23;20858;-83
2022/05/22 08:12:48;;;;;;;70.17;6.37;;;17.40;88.50;;;;;;6124472;23;20163;-83
2022/05/22 08:15:17;;;;;;;72.60;7.20;;;17.40;92.20;;;;;;6124160;23;20654;-83
2022/05/22 08:17:43;;;;;;;70.53;8.17;;;17.60;96.40;;;;;;6124218;23;20373;-83
2022/05/22 08:20:20;;;;;;;70.50;10.93;;;17.80;91.30;;;;;;6123485;23;20366;-83
2022/05/22 08:22:47;;;;;;;71.87;11.57;;;17.80;82.50;;;;;;6123528;23;20393;-83
2022/05/22 08:25:15;;;;;;;80.80;11.43;;;18.00;76.50;;;;;;6124390;23;20371;-83
2022/05/22 08:27:41;;;;;;;70.17;8.83;;;18.10;66.80;;;;;;6123674;23;20367;-83
2022/05/22 08:30:09;;;;;;;74.10;9.13;;;18.20;65.50;;;;;;6123637;23;20436;-84
2022/05/22 08:32:39;;;;;;;70.03;12.00;;;18.20;64.40;;;;;;6097486;23;20481;-83
2022/05/22 08:35:06;;;;;;;70.00;9.93;;;18.10;68.50;;;;;;6124908;23;20390;-83
2022/05/22 08:37:34;;;;;;;79.20;10.97;;;18.10;58.80;;;;;;6129258;23;20379;-83
2022/05/22 08:40:00;;;;;;;71.17;10.67;;;18.30;66.80;;;;;;6129056;23;20375;-83
2022/05/22 08:42:38;;;;;;;69.10;7.60;;;18.50;64.30;;;;;;6128475;23;20478;-83
2022/05/22 08:45:09;;;;;;;70.70;8.20;;;18.60;60.90;;;;;;6127860;23;20363;-83
2022/05/22 08:47:44;;;;;;;70.00;8.33;;;18.50;58.70;;;;;;6126905;23;20383;-83
2022/05/22 08:50:12;;;;;;;80.97;11.50;;;18.50;71.10;;;;;;6099709;23;20669;-82
2022/05/22 08:52:47;;;;;;;70.80;8.67;;;18.60;65.90;;;;;;6125752;23;20383;-83
2022/05/22 08:55:14;;;;;;;74.90;8.80;;;18.60;54.70;;;;;;6124439;23;20351;-83
2022/05/22 09:00:40;;;;;;;69.20;7.50;;;18.60;58.80;;;;;;6125139;23;20859;-83
2022/05/22 09:03:28;;;;;;;69.83;8.27;;;18.70;56.90;;;;;;6125110;23;20367;-82
2022/05/22 09:05:58;;;;;;;71.63;8.53;;;18.80;65.00;;;;;;6125084;23;20394;-83
2022/05/22 09:08:33;;;;;;;73.20;8.17;;;18.90;56.70;;;;;;6099237;23;20394;-83
2022/05/22 09:11:22;;;;;;;71.53;8.47;;;18.90;55.70;;;;;;6124933;23;20712;-82
2022/05/22 09:14:14;;;;;;;72.40;7.80;;;19.20;57.10;;;;;;6125411;23;20401;-83
2022/05/22 09:16:56;;;;;;;70.20;6.47;;;19.20;45.20;;;;;;6125376;23;20379;-83
2022/05/22 09:19:46;;;;;;;70.80;6.10;;;19.30;47.00;;;;;;6126411;23;20355;-83
2022/05/22 09:25:08;;;;;;;72.60;7.80;;;19.30;43.70;;;;;;6092555;22;20432;-84
2022/05/22 09:27:48;;;;;;;71.97;6.17;;;19.30;50.80;;;;;;6099866;23;20441;-85
2022/05/22 09:30:28;;;;;;;70.10;6.53;;;19.50;49.60;;;;;;6098410;23;20379;-85
2022/05/22 09:33:22;;;;;;;69.87;6.47;;;19.60;35.20;;;;;;6125371;23;20411;-85
2022/05/22 09:36:40;;;;;;;71.77;5.57;;;19.80;33.90;;;;;;6098980;23;20701;-85
2022/05/22 09:39:05;;;;;;;70.50;6.00;;;20.00;35.10;;;;;;6124074;23;20371;-85
2022/05/22 09:41:49;;;;;;;70.37;6.00;;;20.20;28.20;;;;;;6099434;23;20392;-85
2022/05/22 09:44:30;;;;;;;68.87;5.00;;;20.10;25.50;;;;;;6126116;23;20575;-84
2022/05/22 09:47:37;;;;;;;77.70;5.23;;;20.40;30.20;;;;;;6125590;23;20404;-85
2022/05/22 09:50:34;;;;;;;69.57;5.87;;;20.60;27.80;;;;;;6099135;23;20508;-85
2022/05/22 09:53:23;;;;;;;71.97;6.23;;;20.90;18.00;;;;;;6126245;23;20404;-85
2022/05/22 09:55:52;;;;;;;69.33;5.43;;;21.20;24.70;;;;;;6126244;23;20387;-85
2022/05/22 09:58:39;;;;;;;72.07;5.80;;;21.30;9.30;;;;;;6099311;23;20414;-85
2022/05/22 10:01:10;;;;;;;69.77;5.40;;;21.40;1.00;;;;;;6099254;23;20455;-85
2022/05/22 10:04:11;;;;;;;70.33;5.77;;;21.50;13.40;;;;;;6124925;23;20433;-85
2022/05/22 10:07:04;;;;;;;70.17;5.40;;;21.80;1.00;;;;;;6125333;23;20460;-85
2022/05/22 10:09:58;;;;;;;70.03;5.83;;;22.00;1.00;;;;;;6126201;23;20348;-85
2022/05/22 10:13:00;;;;;;;73.80;5.90;;;21.80;1.00;;;;;;6125246;23;20386;-85
2022/05/22 10:16:03;;;;;;;70.17;4.63;;;21.40;1.00;;;;;;6099264;23;20378;-85
2022/05/22 10:18:38;;;;;;;71.23;5.67;;;21.10;1.00;;;;;;6100790;23;20374;-85
2022/05/22 10:21:34;;;;;;;72.17;7.03;;;20.90;1.00;;;;;;6098631;23;20395;-85
2022/05/22 10:24:22;;;;;;;71.27;5.20;;;20.90;1.00;;;;;;6098919;23;20821;-85
2022/05/22 10:27:23;;;;;;;72.60;7.20;;;21.20;1.00;;;;;;6101115;23;20430;-84
2022/05/22 10:30:01;;;;;;;72.17;9.37;;;21.70;1.00;;;;;;6126105;23;20351;-85
2022/05/22 10:32:57;;;;;;;71.00;10.10;;;22.00;1.00;;;;;;6101183;23;20887;-85
2022/05/22 10:35:41;;;;;;;69.03;5.03;;;22.40;1.00;;;;;;6099807;23;20374;-85
2022/05/22 10:38:10;;;;;;;69.93;4.60;;;22.80;1.00;;;;;;6125199;23;20500;-85
2022/05/22 10:43:26;;;;;;;67.90;3.70;;;23.20;1.00;;;;;;6125545;23;20350;-85
2022/05/22 10:45:52;;;;;;;71.63;4.10;;;23.10;1.00;;;;;;6098933;23;20422;-85
2022/05/22 10:48:22;;;;;;;67.00;3.07;;;23.20;1.00;;;;;;6101965;23;20186;-85
2022/05/22 10:50:56;;;;;;;71.23;3.63;;;23.20;1.00;;;;;;6128774;23;20367;-84
2022/05/22 10:53:29;;;;;;;68.47;5.37;;;23.40;1.00;;;;;;6103939;23;20371;-85
2022/05/22 10:56:01;;;;;;;71.50;4.57;;;23.70;1.00;;;;;;6101098;23;20401;-85
2022/05/22 10:58:30;;;;;;;71.07;5.00;;;23.70;1.00;;;;;;6100997;23;20696;-84
2022/05/22 11:01:01;;;;;;;69.50;4.90;;;23.80;1.00;;;;;;6126296;23;20390;-84
2022/05/22 11:03:33;;;;;;;68.43;4.90;;;23.90;1.00;;;;;;6126356;23;20351;-85
2022/05/22 11:06:18;;;;;;;69.53;4.00;;;23.90;1.00;;;;;;6125622;23;20455;-84
2022/05/22 11:08:49;;;;;;;69.13;4.10;;;23.90;1.00;;;;;;6127160;23;20355;-84
2022/05/22 11:11:30;;;;;;;66.10;2.87;;;24.10;1.00;;;;;;6126616;23;20379;-85
2022/05/22 11:14:25;;;;;;;71.40;4.37;;;24.30;1.00;;;;;;6099917;23;20455;-85
2022/05/22 11:16:54;;;;;;;68.97;3.30;;;24.40;1.00;;;;;;6126791;23;20700;-85
2022/05/22 11:19:28;;;;;;;71.73;3.60;;;24.50;1.00;;;;;;6126788;23;20413;-85
2022/05/22 11:22:21;;;;;;;67.27;4.30;;;24.60;1.00;;;;;;6100762;23;20976;-85
2022/05/22 11:24:55;;;;;;;66.27;2.63;;;24.60;1.00;;;;;;6126609;23;20386;-84
2022/05/22 11:27:54;;;;;;;68.50;2.67;;;24.50;1.00;;;;;;6100494;23;20426;-84
2022/05/22 11:30:41;;;;;;;69.43;3.07;;;24.70;1.00;;;;;;6127727;23;20355;-85
2022/05/22 11:33:29;;;;;;;66.67;2.63;;;24.70;1.00;;;;;;6127008;23;20367;-84
2022/05/22 11:36:15;;;;;;;66.30;2.20;;;25.00;1.00;;;;;;6127928;23;20387;-85
2022/05/22 11:39:22;;;;;;;68.50;3.10;;;25.00;1.00;;;;;;6126473;23;20790;-85
2022/05/22 11:42:01;;;;;;;66.80;2.50;;;25.40;1.00;;;;;;6101395;23;20404;-84
2022/05/22 11:44:44;;;;;;;67.10;2.70;;;25.50;1.00;;;;;;6128667;23;20349;-84
2022/05/22 11:47:25;;;;;;;67.17;2.50;;;25.60;1.00;;;;;;6129110;23;20412;-84
2022/05/22 11:50:29;;;;;;;70.10;2.60;;;25.70;1.00;;;;;;6128836;23;20695;-85
2022/05/22 11:53:00;;;;;;;68.20;2.63;;;25.60;1.00;;;;;;6127890;23;20439;-85
2022/05/22 11:56:12;;;;;;;67.20;2.73;;;25.60;1.00;;;;;;6101701;23;20384;-85
2022/05/22 11:58:56;;;;;;;66.93;2.47;;;25.70;1.00;;;;;;6101086;23;20374;-85
2022/05/22 12:01:45;;;;;;;68.40;2.67;;;25.60;1.00;;;;;;6127846;23;20388;-85
2022/05/22 12:04:45;;;;;;;68.37;2.80;;;25.60;1.00;;;;;;6101186;23;20369;-84
2022/05/22 12:07:47;;;;;;;66.93;2.37;;;25.80;1.00;;;;;;6125624;23;20420;-84
2022/05/22 12:10:46;;;;;;;67.43;2.80;;;25.70;1.00;;;;;;6124932;23;20349;-84
2022/05/22 12:13:42;;;;;;;67.17;2.60;;;25.60;1.00;;;;;;6124798;23;20721;-84
2022/05/22 12:16:26;;;;;;;69.20;2.87;;;25.30;1.00;;;;;;6099102;23;20734;-84
2022/05/22 12:19:16;;;;;;;69.17;2.60;;;25.00;1.00;;;;;;6127814;23;20358;-85
2022/05/22 12:22:15;;;;;;;67.23;2.73;;;24.80;1.00;;;;;;6101574;23;20482;-84
2022/05/22 12:24:57;;;;;;;67.53;2.50;;;24.80;1.00;;;;;;6127714;23;20381;-85
2022/05/22 12:27:32;;;;;;;67.33;2.80;;;24.90;1.00;;;;;;6128542;23;20499;-84
2022/05/22 12:30:08;;;;;;;67.23;2.57;;;24.80;1.00;;;;;;6101414;23;20381;-85
2022/05/22 12:32:59;;;;;;;66.57;2.40;;;24.80;1.00;;;;;;6101817;23;20480;-84
2022/05/22 12:35:26;;;;;;;66.70;2.70;;;24.60;1.00;;;;;;6101555;23;20756;-85
2022/05/22 12:38:03;;;;;;;71.73;3.10;;;24.90;1.00;;;;;;6100903;23;20406;-85
2022/05/22 12:40:50;;;;;;;68.67;2.97;;;25.20;1.00;;;;;;6101560;23;20386;-85
2022/05/22 12:43:23;;;;;;;70.90;3.27;;;25.50;1.00;;;;;;6127323;23;20356;-85
2022/05/22 12:46:00;;;;;;;68.70;2.93;;;25.60;1.00;;;;;;6126919;23;20418;-85
2022/05/22 12:48:32;;;;;;;66.70;2.70;;;25.60;1.00;;;;;;6101487;23;20928;-85
2022/05/22 12:51:14;;;;;;;67.93;2.70;;;25.50;1.00;;;;;;6127208;23;20425;-86
2022/05/22 12:53:43;;;;;;;67.47;2.43;;;25.40;1.00;;;;;;6101613;23;20381;-85
2022/05/22 12:56:23;;;;;;;66.90;2.90;;;25.50;1.00;;;;;;6126507;23;20453;-85
2022/05/22 12:59:00;;;;;;;66.93;2.47;;;25.40;1.00;;;;;;6126758;23;20349;-85
2022/05/22 13:01:32;;;;;;;65.63;2.40;;;25.40;1.00;;;;;;6126489;23;20727;-85
2022/05/22 13:04:01;;;;;;;68.17;2.70;;;25.60;1.00;;;;;;6100648;23;20473;-85
2022/05/22 13:06:37;;;;;;;69.93;3.03;;;25.60;1.00;;;;;;6101094;23;20422;-85
2022/05/22 13:09:07;;;;;;;66.97;2.87;;;25.70;1.00;;;;;;6126989;23;20831;-85
2022/05/22 13:11:50;;;;;;;66.70;2.57;;;25.60;1.00;;;;;;6100927;23;20410;-85
2022/05/22 13:14:29;;;;;;;68.23;2.83;;;25.60;1.00;;;;;;6127544;23;20358;-85
2022/05/22 13:16:56;;;;;;;67.07;2.90;;;25.40;1.00;;;;;;6127012;23;20689;-85
2022/05/22 13:19:32;;;;;;;66.40;2.67;;;25.50;1.00;;;;;;6101423;23;20464;-85
2022/05/22 13:22:09;;;;;;;67.70;2.50;;;25.60;1.00;;;;;;6102586;23;20401;-85
2022/05/22 13:24:38;;;;;;;70.13;2.80;;;25.40;1.00;;;;;;6102497;23;20401;-85
2022/05/22 13:27:07;;;;;;;67.33;2.70;;;25.20;1.00;;;;;;6101875;23;20437;-86